Time;durP1;ratioP1;P1;durP2;ratioP2;P2;SDS_P1;SDS_P2;PMS_P1;PMS_P2;Temp;Humidity;BMP_temperature;BMP_pressure;BME280_temperature;BME280_humidity;BME280_pressure;Samples;Min_cycle;Max_cycle;Signal;HPM_P1;HPM_P2
2021/06/03 00:01:37;;;;;;;6.30;3.88;;;;;;;;;;10311659;28;20069;-56
2021/06/03 00:06:35;;;;;;;7.28;3.50;;;;;;;;;;10300728;28;20045;-58
2021/06/03 00:11:33;;;;;;;3.33;3.03;;;;;;;;;;10277989;28;20401;-58
2021/06/03 00:16:34;;;;;;;5.20;4.18;;;;;;;;;;10284826;28;20078;-58
2021/06/03 00:21:32;;;;;;;8.45;5.28;;;;;;;;;;10294263;28;20548;-58
2021/06/03 00:26:30;;;;;;;11.30;4.90;;;;;;;;;;10292662;28;20445;-58
2021/06/03 00:31:28;;;;;;;4.47;4.07;;;;;;;;;;10289753;28;20505;-55
2021/06/03 00:36:27;;;;;;;5.53;4.63;;;;;;;;;;10288928;28;20450;-57
2021/06/03 00:41:25;;;;;;;8.82;4.53;;;;;;;;;;10309782;28;20068;-57
2021/06/03 00:46:23;;;;;;;8.05;4.30;;;;;;;;;;10281450;28;20056;-58
2021/06/03 00:51:21;;;;;;;12.65;4.93;;;;;;;;;;10297677;28;20049;-58
2021/06/03 00:56:20;;;;;;;7.65;4.72;;;;;;;;;;10305633;28;20052;-58
2021/06/03 01:01:19;;;;;;;10.00;6.00;;;;;;;;;;10278064;28;20076;-57
2021/06/03 01:06:17;;;;;;;8.18;6.15;;;;;;;;;;10290307;28;20068;-54
2021/06/03 01:11:18;;;;;;;6.47;4.50;;;;;;;;;;10284133;28;20053;-57
2021/06/03 01:16:18;;;;;;;8.88;4.32;;;;;;;;;;10281018;28;20076;-58
2021/06/03 01:21:18;;;;;;;5.95;4.18;;;;;;;;;;10291875;28;20110;-58
2021/06/03 01:26:18;;;;;;;6.93;3.83;;;;;;;;;;10289976;28;20064;-58
2021/06/03 01:31:20;;;;;;;10.90;3.70;;;;;;;;;;10304796;28;20052;-57
2021/06/03 01:36:18;;;;;;;7.28;3.83;;;;;;;;;;10290016;28;20056;-58
2021/06/03 01:41:18;;;;;;;6.25;4.18;;;;;;;;;;10313403;28;20418;-57
2021/06/03 01:46:16;;;;;;;6.15;4.30;;;;;;;;;;10293050;28;20053;-58
2021/06/03 01:51:14;;;;;;;8.48;4.13;;;;;;;;;;10288588;28;20072;-58
2021/06/03 01:56:14;;;;;;;4.15;3.40;;;;;;;;;;10295710;28;20087;-58
2021/06/03 02:01:13;;;;;;;8.38;3.65;;;;;;;;;;10300933;28;20083;-59
2021/06/03 02:06:13;;;;;;;4.00;3.60;;;;;;;;;;10291817;28;20521;-58
2021/06/03 02:11:12;;;;;;;4.45;3.55;;;;;;;;;;10304538;28;20060;-59
2021/06/03 02:16:14;;;;;;;7.00;4.07;;;;;;;;;;10294580;28;20085;-57
2021/06/03 02:21:13;;;;;;;10.25;3.90;;;;;;;;;;10310656;28;20088;-56
2021/06/03 02:26:12;;;;;;;4.22;3.83;;;;;;;;;;10280785;28;20493;-59
2021/06/03 02:31:16;;;;;;;7.47;3.70;;;;;;;;;;10280544;28;20049;-58
2021/06/03 02:36:16;;;;;;;8.32;3.88;;;;;;;;;;10281852;28;20064;-56
2021/06/03 02:41:14;;;;;;;8.27;3.75;;;;;;;;;;10280137;28;20101;-58
2021/06/03 02:46:14;;;;;;;6.60;4.03;;;;;;;;;;10279279;28;20057;-59
2021/06/03 02:51:16;;;;;;;7.95;3.65;;;;;;;;;;10280028;28;20517;-59
2021/06/03 02:56:14;;;;;;;7.78;3.75;;;;;;;;;;10279116;28;20045;-55
2021/06/03 03:01:13;;;;;;;13.02;4.97;;;;;;;;;;10286568;28;20084;-58
2021/06/03 03:06:11;;;;;;;5.05;4.03;;;;;;;;;;10304103;28;20040;-58
2021/06/03 03:11:12;;;;;;;9.68;5.18;;;;;;;;;;10314434;28;20045;-58
2021/06/03 03:16:16;;;;;;;9.18;5.25;;;;;;;;;;10285052;28;20425;-58
2021/06/03 03:21:14;;;;;;;6.85;4.57;;;;;;;;;;10316699;28;20497;-58
2021/06/03 03:26:16;;;;;;;11.90;4.50;;;;;;;;;;10308263;28;20139;-57
2021/06/03 03:31:14;;;;;;;13.30;4.32;;;;;;;;;;10300427;28;20123;-52
2021/06/03 03:36:14;;;;;;;12.63;4.30;;;;;;;;;;10297302;28;20045;-57
2021/06/03 03:41:19;;;;;;;12.55;5.55;;;;;;;;;;10303449;28;20094;-58
2021/06/03 03:46:18;;;;;;;12.02;4.97;;;;;;;;;;10315312;28;20517;-57
2021/06/03 03:51:18;;;;;;;11.02;4.88;;;;;;;;;;10315630;28;20047;-59
2021/06/03 03:56:16;;;;;;;9.70;4.53;;;;;;;;;;10315665;28;20477;-57
2021/06/03 04:01:16;;;;;;;5.85;4.70;;;;;;;;;;10316127;28;20088;-59
2021/06/03 04:06:17;;;;;;;9.30;4.55;;;;;;;;;;10315735;28;20053;-58
2021/06/03 04:11:19;;;;;;;7.22;4.57;;;;;;;;;;10315625;28;20057;-58
2021/06/03 04:16:21;;;;;;;7.13;4.80;;;;;;;;;;10316728;28;20056;-57
2021/06/03 04:21:20;;;;;;;7.82;5.30;;;;;;;;;;10316601;28;20084;-57
2021/06/03 04:26:18;;;;;;;7.20;5.25;;;;;;;;;;10316717;28;20044;-58
2021/06/03 04:31:16;;;;;;;7.65;5.38;;;;;;;;;;10316430;28;20048;-57
2021/06/03 04:36:15;;;;;;;8.20;5.28;;;;;;;;;;10316128;28;20083;-58
2021/06/03 04:41:13;;;;;;;11.32;5.03;;;;;;;;;;10314502;28;20083;-58
2021/06/03 04:46:12;;;;;;;10.65;5.07;;;;;;;;;;10314191;28;20045;-58
2021/06/03 04:51:10;;;;;;;9.00;5.72;;;;;;;;;;10314045;28;20068;-57
2021/06/03 04:56:09;;;;;;;18.20;5.88;;;;;;;;;;10311402;28;20072;-57
2021/06/03 05:01:07;;;;;;;9.30;5.88;;;;;;;;;;10315038;28;20087;-57
2021/06/03 05:06:06;;;;;;;12.88;5.85;;;;;;;;;;10315239;28;20300;-58
2021/06/03 05:11:04;;;;;;;12.60;5.45;;;;;;;;;;10315220;28;20075;-58
2021/06/03 05:16:04;;;;;;;12.57;5.75;;;;;;;;;;10314308;28;20087;-59
2021/06/03 05:21:02;;;;;;;11.65;5.70;;;;;;;;;;10315303;28;20084;-58
2021/06/03 05:26:00;;;;;;;15.75;6.50;;;;;;;;;;10315473;28;20074;-58
2021/06/03 05:30:58;;;;;;;12.98;6.65;;;;;;;;;;10314681;28;20080;-58
2021/06/03 05:35:58;;;;;;;11.15;7.18;;;;;;;;;;10313456;28;20056;-58
2021/06/03 05:40:55;;;;;;;15.90;6.50;;;;;;;;;;10314055;28;20517;-59
2021/06/03 05:45:53;;;;;;;10.45;5.47;;;;;;;;;;10314727;28;20079;-59
2021/06/03 05:50:51;;;;;;;10.98;4.55;;;;;;;;;;10314381;28;20511;-58
2021/06/03 05:55:50;;;;;;;14.68;5.22;;;;;;;;;;10313881;28;20064;-58
2021/06/03 06:00:48;;;;;;;11.50;6.03;;;;;;;;;;10314188;28;20079;-58
2021/06/03 06:06:11;;;;;;;11.57;5.10;;;;;;;;;;10314350;28;20068;-58
2021/06/03 06:11:10;;;;;;;12.90;5.50;;;;;;;;;;10314112;28;20045;-58
2021/06/03 06:16:08;;;;;;;32.22;27.27;;;;;;;;;;10313569;28;20083;-51
2021/06/03 06:21:06;;;;;;;11.98;8.43;;;;;;;;;;10319201;28;20083;-50
2021/06/03 06:26:05;;;;;;;13.95;8.32;;;;;;;;;;10321795;28;20053;-50
2021/06/03 06:31:04;;;;;;;8.90;5.45;;;;;;;;;;10320502;28;20052;-51
2021/06/03 06:36:03;;;;;;;10.25;5.53;;;;;;;;;;10321124;28;20064;-48
2021/06/03 06:41:01;;;;;;;9.52;4.75;;;;;;;;;;10320682;28;20044;-48
2021/06/03 06:45:59;;;;;;;14.52;8.30;;;;;;;;;;10320076;28;20075;-48
2021/06/03 06:50:59;;;;;;;8.27;5.63;;;;;;;;;;10320478;28;20351;-48
2021/06/03 06:55:57;;;;;;;12.23;7.60;;;;;;;;;;10320314;28;20067;-48
2021/06/03 07:01:00;;;;;;;12.20;6.28;;;;;;;;;;10320196;28;20067;-47
2021/06/03 07:05:59;;;;;;;10.68;6.22;;;;;;;;;;10319591;28;20535;-50
2021/06/03 07:10:57;;;;;;;12.52;7.20;;;;;;;;;;10319920;28;20080;-50
2021/06/03 07:15:55;;;;;;;13.52;8.20;;;;;;;;;;10318550;28;20045;-52
2021/06/03 07:20:53;;;;;;;32.75;26.27;;;;;;;;;;10319552;28;20118;-52
2021/06/03 07:25:55;;;;;;;17.98;12.98;;;;;;;;;;10319287;28;20110;-49
2021/06/03 07:30:53;;;;;;;11.25;8.45;;;;;;;;;;10319163;28;20051;-52
2021/06/03 07:35:51;;;;;;;12.30;7.85;;;;;;;;;;10318818;28;20532;-55
2021/06/03 07:40:49;;;;;;;9.43;6.15;;;;;;;;;;10318679;28;20056;-53
2021/06/03 07:45:49;;;;;;;12.02;8.02;;;;;;;;;;10318253;28;20087;-53
2021/06/03 07:50:46;;;;;;;8.05;4.78;;;;;;;;;;10317898;28;20079;-53
2021/06/03 07:55:44;;;;;;;6.50;4.50;;;;;;;;;;10317709;28;20229;-50
2021/06/03 08:00:43;;;;;;;8.38;5.18;;;;;;;;;;10317503;28;20032;-50
2021/06/03 08:05:44;;;;;;;7.90;4.70;;;;;;;;;;10317268;28;20076;-54
2021/06/03 08:10:42;;;;;;;14.48;6.38;;;;;;;;;;10317254;28;20071;-52
2021/06/03 08:15:41;;;;;;;13.05;8.15;;;;;;;;;;10316419;28;20076;-54
2021/06/03 08:20:40;;;;;;;7.78;5.57;;;;;;;;;;10317076;28;20409;-52
2021/06/03 08:25:39;;;;;;;15.80;5.93;;;;;;;;;;10316733;28;20107;-50
2021/06/03 08:30:37;;;;;;;13.32;9.02;;;;;;;;;;10316322;28;20520;-51
2021/06/03 08:35:36;;;;;;;9.90;4.43;;;;;;;;;;10316429;28;20040;-47
2021/06/03 08:40:35;;;;;;;13.23;7.47;;;;;;;;;;10315932;28;20075;-47
2021/06/03 08:45:35;;;;;;;8.40;5.43;;;;;;;;;;10314006;28;20076;-53
2021/06/03 08:50:35;;;;;;;14.27;5.20;;;;;;;;;;10316082;28;20037;-52
2021/06/03 09:00:50;;;;;;;11.75;5.72;;;;;;;;;;10316103;28;20045;-53
2021/06/03 09:05:48;;;;;;;9.40;4.22;;;;;;;;;;10315581;28;20087;-48
2021/06/03 09:10:48;;;;;;;9.68;7.80;;;;;;;;;;10315515;28;20143;-53
2021/06/03 09:15:47;;;;;;;25.67;19.02;;;;;;;;;;10314521;28;20052;-49
2021/06/03 09:20:46;;;;;;;11.25;7.07;;;;;;;;;;10315057;28;20076;-49
2021/06/03 09:25:44;;;;;;;23.95;19.73;;;;;;;;;;10314614;28;20091;-46
2021/06/03 09:30:50;;;;;;;8.60;7.00;;;;;;;;;;10315031;28;20110;-46
2021/06/03 09:35:56;;;;;;;7.07;4.97;;;;;;;;;;10314972;28;20036;-46
2021/06/03 09:40:54;;;;;;;15.65;9.23;;;;;;;;;;10314932;28;20048;-48
2021/06/03 09:45:53;;;;;;;12.23;9.82;;;;;;;;;;10313935;28;20075;-48
2021/06/03 09:50:51;;;;;;;7.90;2.50;;;;;;;;;;10314400;28;20041;-46
2021/06/03 09:55:50;;;;;;;6.13;2.95;;;;;;;;;;10321654;28;20472;-47
2021/06/03 10:00:48;;;;;;;6.30;4.25;;;;;;;;;;10321814;28;20071;-51
2021/06/03 10:05:59;;;;;;;4.70;3.08;;;;;;;;;;10322363;28;20080;-48
2021/06/03 10:10:58;;;;;;;11.38;3.40;;;;;;;;;;10322516;28;20048;-48
2021/06/03 10:15:56;;;;;;;4.88;2.90;;;;;;;;;;10321180;28;20048;-50
2021/06/03 10:20:54;;;;;;;8.13;3.05;;;;;;;;;;10321711;28;20679;-45
2021/06/03 10:25:55;;;;;;;4.43;2.67;;;;;;;;;;10321455;28;20441;-48
2021/06/03 10:30:55;;;;;;;5.30;4.38;;;;;;;;;;10320779;28;20056;-52
2021/06/03 10:35:54;;;;;;;8.63;4.15;;;;;;;;;;10321067;28;20056;-49
2021/06/03 10:40:54;;;;;;;21.45;15.60;;;;;;;;;;10320826;28;20079;-49
2021/06/03 10:45:52;;;;;;;19.42;17.05;;;;;;;;;;10320636;28;20079;-47
2021/06/03 10:50:52;;;;;;;6.43;3.00;;;;;;;;;;10320585;28;20036;-46
2021/06/03 10:55:51;;;;;;;7.03;4.47;;;;;;;;;;10320545;28;20049;-49
2021/06/03 11:00:59;;;;;;;21.73;15.82;;;;;;;;;;10320471;28;20048;-48
2021/06/03 11:06:02;;;;;;;6.65;3.67;;;;;;;;;;10319436;28;20512;-47
2021/06/03 11:11:24;;;;;;;10.48;5.20;;;;;;;;;;10319899;28;20072;-49
2021/06/03 11:16:22;;;;;;;7.75;5.18;;;;;;;;;;10304531;28;20260;-46
2021/06/03 11:21:35;;;;;;;16.58;7.53;;;;;;;;;;10319310;28;20052;-46
2021/06/03 11:26:51;;;;;;;14.68;11.85;;;;;;;;;;10318755;28;20091;-46
2021/06/03 11:32:09;;;;;;;4.65;3.20;;;;;;;;;;10318979;28;20131;-54
2021/06/03 11:37:08;;;;;;;6.05;3.88;;;;;;;;;;10319251;28;20041;-54
2021/06/03 11:42:25;;;;;;;6.43;3.85;;;;;;;;;;10318683;28;20047;-46
2021/06/03 11:47:24;;;;;;;5.90;3.13;;;;;;;;;;10318819;28;20079;-48
2021/06/03 11:52:22;;;;;;;8.80;5.63;;;;;;;;;;10318317;28;20405;-52
2021/06/03 11:57:20;;;;;;;12.65;6.18;;;;;;;;;;10318459;28;20633;-53
2021/06/03 12:02:28;;;;;;;10.23;4.82;;;;;;;;;;10317820;28;20071;-50
2021/06/03 12:07:39;;;;;;;13.40;2.40;;;;;;;;;;10317692;28;20048;-50
2021/06/03 12:12:37;;;;;;;5.97;3.50;;;;;;;;;;10315843;28;20048;-51
2021/06/03 12:17:37;;;;;;;8.57;5.43;;;;;;;;;;10315651;28;20045;-49
2021/06/03 12:22:35;;;;;;;8.85;3.25;;;;;;;;;;10317349;28;20072;-48
2021/06/03 12:27:34;;;;;;;9.88;3.95;;;;;;;;;;10316942;28;20040;-48
2021/06/03 12:32:32;;;;;;;8.10;3.28;;;;;;;;;;10315932;28;20036;-50
2021/06/03 12:37:32;;;;;;;8.32;3.70;;;;;;;;;;10315894;28;20395;-47
2021/06/03 12:42:30;;;;;;;4.68;1.83;;;;;;;;;;10316317;28;20083;-48
2021/06/03 12:47:31;;;;;;;4.60;3.20;;;;;;;;;;10315442;28;20528;-46
2021/06/03 12:52:29;;;;;;;7.32;4.65;;;;;;;;;;10316228;28;20048;-48
2021/06/03 12:57:29;;;;;;;8.40;3.92;;;;;;;;;;10316042;28;20045;-45
2021/06/03 13:02:28;;;;;;;5.95;3.00;;;;;;;;;;10316050;28;20064;-47
2021/06/03 13:07:27;;;;;;;7.60;5.07;;;;;;;;;;10315575;28;20068;-48
2021/06/03 13:12:25;;;;;;;8.60;4.72;;;;;;;;;;10315550;28;20068;-53
2021/06/03 13:17:31;;;;;;;16.92;7.25;;;;;;;;;;10314621;28;20087;-53
2021/06/03 13:22:30;;;;;;;7.93;4.30;;;;;;;;;;10314758;28;20493;-55
2021/06/03 13:27:31;;;;;;;8.00;4.47;;;;;;;;;;10315043;28;20468;-55
2021/06/03 13:32:31;;;;;;;10.68;8.93;;;;;;;;;;10315427;28;20068;-54
2021/06/03 13:37:30;;;;;;;7.03;3.60;;;;;;;;;;10314599;28;20048;-54
2021/06/03 13:42:28;;;;;;;7.65;4.90;;;;;;;;;;10315265;28;20052;-55
2021/06/03 13:47:49;;;;;;;6.68;2.83;;;;;;;;;;10315071;28;20057;-54
2021/06/03 13:52:49;;;;;;;8.48;4.57;;;;;;;;;;10314988;28;20055;-56
2021/06/03 13:57:47;;;;;;;5.65;5.07;;;;;;;;;;10314867;28;20044;-56
2021/06/03 14:02:56;;;;;;;6.40;4.68;;;;;;;;;;10314668;28;20083;-51
2021/06/03 14:08:15;;;;;;;7.40;3.85;;;;;;;;;;10314677;28;20060;-52
2021/06/03 14:13:13;;;;;;;7.45;3.60;;;;;;;;;;10309699;28;20572;-53
2021/06/03 14:18:12;;;;;;;6.30;3.90;;;;;;;;;;10303907;28;20115;-56
2021/06/03 14:23:10;;;;;;;8.48;3.60;;;;;;;;;;10282941;28;20068;-49
2021/06/03 14:28:12;;;;;;;10.32;7.43;;;;;;;;;;10274951;28;20045;-53
2021/06/03 14:33:10;;;;;;;6.55;3.47;;;;;;;;;;10265116;28;20064;-52
2021/06/03 14:38:09;;;;;;;6.93;2.88;;;;;;;;;;10290410;28;20315;-50
2021/06/03 14:43:08;;;;;;;11.05;3.35;;;;;;;;;;10296462;28;20064;-57
2021/06/03 14:48:06;;;;;;;5.28;2.03;;;;;;;;;;10286210;28;20049;-56
2021/06/03 14:53:05;;;;;;;5.95;3.22;;;;;;;;;;10280774;28;20075;-57
2021/06/03 14:58:05;;;;;;;6.28;4.60;;;;;;;;;;10295899;28;20036;-57
2021/06/03 15:03:03;;;;;;;11.10;5.60;;;;;;;;;;10300074;28;20080;-55
2021/06/03 15:08:02;;;;;;;7.65;5.43;;;;;;;;;;10282343;28;20485;-56
2021/06/03 15:13:00;;;;;;;17.23;9.65;;;;;;;;;;10280344;28;20076;-55
2021/06/03 15:18:02;;;;;;;11.45;7.78;;;;;;;;;;10278905;28;20506;-58
2021/06/03 15:23:01;;;;;;;5.20;3.55;;;;;;;;;;10281653;28;20084;-57
2021/06/03 15:27:59;;;;;;;14.23;6.38;;;;;;;;;;10320429;28;20083;-56
2021/06/03 15:32:59;;;;;;;6.20;3.35;;;;;;;;;;10305872;28;20214;-57
2021/06/03 15:38:00;;;;;;;9.85;3.83;;;;;;;;;;10283240;28;20077;-57
2021/06/03 15:42:57;;;;;;;8.40;4.03;;;;;;;;;;10278224;28;20079;-58
2021/06/03 15:47:55;;;;;;;7.05;2.60;;;;;;;;;;10279059;28;20071;-58
2021/06/03 15:52:54;;;;;;;8.25;3.95;;;;;;;;;;10283273;28;20088;-57
2021/06/03 15:57:54;;;;;;;16.30;3.35;;;;;;;;;;10306788;28;20048;-57
2021/06/03 16:02:53;;;;;;;10.45;4.88;;;;;;;;;;10319334;28;20044;-58
2021/06/03 16:07:51;;;;;;;17.67;6.70;;;;;;;;;;10284032;28;20076;-56
2021/06/03 16:12:51;;;;;;;26.42;10.02;;;;;;;;;;10292738;28;20110;-53
2021/06/03 16:17:50;;;;;;;7.93;4.00;;;;;;;;;;10288860;28;20057;-54
2021/06/03 16:22:49;;;;;;;7.82;4.72;;;;;;;;;;10276562;28;20075;-57
2021/06/03 16:27:50;;;;;;;11.55;4.15;;;;;;;;;;10290917;28;20088;-57
2021/06/03 16:32:52;;;;;;;9.20;4.15;;;;;;;;;;10302941;28;20505;-58
2021/06/03 16:37:51;;;;;;;12.23;4.97;;;;;;;;;;10287789;28;20083;-59
2021/06/03 16:42:49;;;;;;;16.48;6.18;;;;;;;;;;10271102;28;20076;-58
2021/06/03 16:47:47;;;;;;;10.07;4.38;;;;;;;;;;10287802;28;20068;-59
2021/06/03 16:52:47;;;;;;;11.55;4.07;;;;;;;;;;10301409;28;20052;-58
2021/06/03 16:57:45;;;;;;;7.10;3.60;;;;;;;;;;10287398;28;20073;-58
2021/06/03 17:02:43;;;;;;;6.47;4.18;;;;;;;;;;10302144;28;20084;-59
2021/06/03 17:07:49;;;;;;;10.90;3.65;;;;;;;;;;10284722;28;20103;-54
2021/06/03 17:12:50;;;;;;;6.22;4.32;;;;;;;;;;10296453;28;20083;-58
2021/06/03 17:17:49;;;;;;;5.57;3.85;;;;;;;;;;10282032;28;20477;-56
2021/06/03 17:22:47;;;;;;;11.15;5.82;;;;;;;;;;10296619;28;20547;-58
2021/06/03 17:27:47;;;;;;;37.70;24.48;;;;;;;;;;10304016;28;20052;-58
2021/06/03 17:32:46;;;;;;;12.23;10.65;;;;;;;;;;10274787;28;20056;-58
2021/06/03 17:37:44;;;;;;;8.73;5.38;;;;;;;;;;10282421;28;20079;-58
2021/06/03 17:42:43;;;;;;;18.30;15.75;;;;;;;;;;10284833;28;20049;-58
2021/06/03 17:47:41;;;;;;;30.90;19.13;;;;;;;;;;10310576;28;20072;-56
2021/06/03 17:52:40;;;;;;;17.10;11.70;;;;;;;;;;10315757;28;20049;-57
2021/06/03 17:57:38;;;;;;;10.40;7.22;;;;;;;;;;10304874;28;20053;-57
2021/06/03 18:02:36;;;;;;;9.15;4.68;;;;;;;;;;10292462;28;20536;-56
2021/06/03 18:07:34;;;;;;;7.13;5.50;;;;;;;;;;10315445;28;20071;-57
2021/06/03 18:12:34;;;;;;;11.18;6.40;;;;;;;;;;10315157;28;20049;-58
2021/06/03 18:17:32;;;;;;;7.15;5.18;;;;;;;;;;10291693;28;20088;-57
2021/06/03 18:22:30;;;;;;;8.70;6.22;;;;;;;;;;10302122;28;20048;-56
2021/06/03 18:27:44;;;;;;;12.07;6.95;;;;;;;;;;10294328;28;20056;-57
2021/06/03 18:32:42;;;;;;;15.13;6.82;;;;;;;;;;10322219;28;20074;-58
2021/06/03 18:37:41;;;;;;;16.05;7.10;;;;;;;;;;10305095;28;20075;-56
2021/06/03 18:42:39;;;;;;;5.80;5.00;;;;;;;;;;10302848;28;20090;-58
2021/06/03 18:47:39;;;;;;;10.88;3.70;;;;;;;;;;10297422;28;20550;-58
2021/06/03 18:52:36;;;;;;;7.03;3.53;;;;;;;;;;10300180;28;20068;-58
2021/06/03 18:57:34;;;;;;;6.88;3.28;;;;;;;;;;10285759;28;20068;-58
2021/06/03 19:02:32;;;;;;;6.55;2.70;;;;;;;;;;10289492;28;20116;-58
2021/06/03 19:07:31;;;;;;;5.95;3.28;;;;;;;;;;10297667;28;20110;-56
2021/06/03 19:12:45;;;;;;;5.65;2.88;;;;;;;;;;10292389;28;20103;-56
2021/06/03 19:17:47;;;;;;;7.10;3.15;;;;;;;;;;10294634;28;20107;-57
2021/06/03 19:22:47;;;;;;;5.55;3.80;;;;;;;;;;10279705;28;20049;-57
2021/06/03 19:27:45;;;;;;;8.32;4.47;;;;;;;;;;10292574;28;20072;-57
2021/06/03 19:32:45;;;;;;;4.55;3.13;;;;;;;;;;10277976;28;20053;-56
2021/06/03 19:37:43;;;;;;;7.30;4.60;;;;;;;;;;10279862;28;20501;-56
2021/06/03 19:42:43;;;;;;;5.65;2.88;;;;;;;;;;10286835;28;20065;-57
2021/06/03 19:47:41;;;;;;;5.65;3.72;;;;;;;;;;10297171;28;20080;-58
2021/06/03 19:52:39;;;;;;;6.47;2.97;;;;;;;;;;10290645;28;20087;-58
2021/06/03 19:57:37;;;;;;;8.10;4.50;;;;;;;;;;10279185;28;20080;-57
2021/06/03 20:02:36;;;;;;;19.38;5.25;;;;;;;;;;10292635;28;20041;-58
2021/06/03 20:07:34;;;;;;;13.55;5.45;;;;;;;;;;10298073;28;20072;-58
2021/06/03 20:12:32;;;;;;;15.48;5.38;;;;;;;;;;10284611;28;20037;-57
2021/06/03 20:17:30;;;;;;;14.93;5.53;;;;;;;;;;10276914;28;20060;-57
2021/06/03 20:22:29;;;;;;;12.32;4.47;;;;;;;;;;10278392;28;20040;-58
2021/06/03 20:27:27;;;;;;;13.63;4.63;;;;;;;;;;10277977;28;20096;-57
2021/06/03 20:32:24;;;;;;;9.98;3.60;;;;;;;;;;10276018;28;20049;-58
2021/06/03 20:37:22;;;;;;;13.00;5.30;;;;;;;;;;10276840;28;20043;-57
2021/06/03 20:42:21;;;;;;;9.13;6.15;;;;;;;;;;10277601;28;20060;-57
2021/06/03 20:47:19;;;;;;;10.25;4.93;;;;;;;;;;10277262;28;20457;-57
2021/06/03 20:52:17;;;;;;;10.77;3.00;;;;;;;;;;10276226;28;20045;-58
2021/06/03 20:57:15;;;;;;;6.50;2.03;;;;;;;;;;10277012;28;20051;-55
2021/06/03 21:02:14;;;;;;;6.00;2.75;;;;;;;;;;10276692;28;20041;-58
2021/06/03 21:07:11;;;;;;;6.22;2.72;;;;;;;;;;10275770;28;20080;-58
2021/06/03 21:12:09;;;;;;;5.88;3.35;;;;;;;;;;10276437;28;20592;-57
2021/06/03 21:17:14;;;;;;;5.93;3.08;;;;;;;;;;10274689;28;20112;-58
2021/06/03 21:22:12;;;;;;;4.93;2.50;;;;;;;;;;10275392;28;20067;-58
2021/06/03 21:27:18;;;;;;;6.57;2.72;;;;;;;;;;10274236;28;20094;-57
2021/06/03 21:32:19;;;;;;;9.23;2.90;;;;;;;;;;10274277;28;20045;-57
2021/06/03 21:37:16;;;;;;;4.20;2.30;;;;;;;;;;10276049;28;20077;-56
2021/06/03 21:42:17;;;;;;;4.07;2.42;;;;;;;;;;10273809;28;20052;-56
2021/06/03 21:47:20;;;;;;;6.80;2.38;;;;;;;;;;10275738;28;20080;-57
2021/06/03 21:52:19;;;;;;;5.90;2.90;;;;;;;;;;10283115;28;20049;-57
2021/06/03 21:57:17;;;;;;;2.58;2.38;;;;;;;;;;10283257;28;20084;-55
2021/06/03 22:02:15;;;;;;;6.97;2.63;;;;;;;;;;10283668;28;20045;-56
2021/06/03 22:07:17;;;;;;;9.00;2.92;;;;;;;;;;10281748;28;20060;-58
2021/06/03 22:12:17;;;;;;;5.68;2.47;;;;;;;;;;10281906;28;20505;-57
2021/06/03 22:17:23;;;;;;;3.92;2.63;;;;;;;;;;10281272;28;20061;-57
2021/06/03 22:22:22;;;;;;;5.25;2.33;;;;;;;;;;10282840;28;20056;-56
2021/06/03 22:27:33;;;;;;;5.47;2.30;;;;;;;;;;10281288;28;20095;-59
2021/06/03 22:32:31;;;;;;;6.00;2.13;;;;;;;;;;10283045;28;20053;-58
2021/06/03 22:37:30;;;;;;;8.98;2.05;;;;;;;;;;10282531;28;20052;-57
2021/06/03 22:42:28;;;;;;;16.48;2.67;;;;;;;;;;10280978;28;20416;-58
2021/06/03 22:47:27;;;;;;;5.30;2.85;;;;;;;;;;10281880;28;20084;-57
2021/06/03 22:52:25;;;;;;;10.88;3.55;;;;;;;;;;10280428;28;20438;-58
2021/06/03 22:57:24;;;;;;;5.00;2.60;;;;;;;;;;10280855;28;20081;-58
2021/06/03 23:02:22;;;;;;;2.72;2.03;;;;;;;;;;10280115;28;20048;-58
2021/06/03 23:07:20;;;;;;;8.18;2.25;;;;;;;;;;10281242;28;20084;-58
2021/06/03 23:12:18;;;;;;;3.40;2.10;;;;;;;;;;10281105;28;20032;-57
2021/06/03 23:17:17;;;;;;;6.13;5.63;;;;;;;;;;10280201;28;20091;-57
2021/06/03 23:22:15;;;;;;;5.47;3.60;;;;;;;;;;10279125;28;20056;-55
2021/06/03 23:27:13;;;;;;;9.20;3.95;;;;;;;;;;10280069;28;20095;-58
2021/06/03 23:32:11;;;;;;;6.68;3.00;;;;;;;;;;10280160;28;20078;-58
2021/06/03 23:37:10;;;;;;;6.75;2.25;;;;;;;;;;10279434;28;20118;-57
2021/06/03 23:42:07;;;;;;;4.50;2.22;;;;;;;;;;10279900;28;20057;-58
2021/06/03 23:47:05;;;;;;;3.85;2.20;;;;;;;;;;10279577;28;20520;-57
2021/06/03 23:52:03;;;;;;;9.80;2.47;;;;;;;;;;10279453;28;20072;-56
2021/06/03 23:57:03;;;;;;;5.43;2.45;;;;;;;;;;10279365;28;20482;-57
